sensor_id;sensor_type;location;lat;lon;timestamp;temperature;humidity
43043;DHT22;28667;50.758;6.096;2023-06-04T00:01:54;11.30;95.40
43043;DHT22;28667;50.758;6.096;2023-06-04T00:04:20;11.30;95.40
43043;DHT22;28667;50.758;6.096;2023-06-04T00:06:45;11.20;95.50
43043;DHT22;28667;50.758;6.096;2023-06-04T00:09:11;11.20;95.50
43043;DHT22;28667;50.758;6.096;2023-06-04T00:11:37;11.10;95.70
43043;DHT22;28667;50.758;6.096;2023-06-04T00:14:03;11.10;95.90
43043;DHT22;28667;50.758;6.096;2023-06-04T00:16:28;11.00;96.00
43043;DHT22;28667;50.758;6.096;2023-06-04T00:18:54;11.00;96.10
43043;DHT22;28667;50.758;6.096;2023-06-04T00:21:20;10.90;96.30
43043;DHT22;28667;50.758;6.096;2023-06-04T00:23:45;10.90;96.40
43043;DHT22;28667;50.758;6.096;2023-06-04T00:26:11;10.90;96.60
43043;DHT22;28667;50.758;6.096;2023-06-04T00:28:39;10.80;96.80
43043;DHT22;28667;50.758;6.096;2023-06-04T00:31:05;10.80;97.10
43043;DHT22;28667;50.758;6.096;2023-06-04T00:33:31;10.70;97.20
43043;DHT22;28667;50.758;6.096;2023-06-04T00:35:57;10.70;97.70
43043;DHT22;28667;50.758;6.096;2023-06-04T00:38:23;10.60;97.50
43043;DHT22;28667;50.758;6.096;2023-06-04T00:43:15;10.60;97.50
43043;DHT22;28667;50.758;6.096;2023-06-04T00:45:41;10.50;97.90
43043;DHT22;28667;50.758;6.096;2023-06-04T00:48:07;10.50;98.10
43043;DHT22;28667;50.758;6.096;2023-06-04T00:50:33;10.50;98.20
43043;DHT22;28667;50.758;6.096;2023-06-04T00:53:01;10.40;98.30
43043;DHT22;28667;50.758;6.096;2023-06-04T00:55:27;10.40;98.50
43043;DHT22;28667;50.758;6.096;2023-06-04T00:57:53;10.40;98.60
43043;DHT22;28667;50.758;6.096;2023-06-04T01:00:19;10.30;98.90
43043;DHT22;28667;50.758;6.096;2023-06-04T01:02:46;10.30;99.00
43043;DHT22;28667;50.758;6.096;2023-06-04T01:05:43;10.20;99.00
43043;DHT22;28667;50.758;6.096;2023-06-04T01:08:13;10.20;99.10
43043;DHT22;28667;50.758;6.096;2023-06-04T01:10:57;10.10;99.40
43043;DHT22;28667;50.758;6.096;2023-06-04T01:13:24;10.10;99.40
43043;DHT22;28667;50.758;6.096;2023-06-04T01:15:50;10.10;99.50
43043;DHT22;28667;50.758;6.096;2023-06-04T01:18:26;10.00;99.70
43043;DHT22;28667;50.758;6.096;2023-06-04T01:21:00;10.00;99.90
43043;DHT22;28667;50.758;6.096;2023-06-04T01:26:03;9.90;99.90
43043;DHT22;28667;50.758;6.096;2023-06-04T01:28:30;9.90;99.90
43043;DHT22;28667;50.758;6.096;2023-06-04T01:30:58;9.80;99.90
43043;DHT22;28667;50.758;6.096;2023-06-04T01:33:26;9.80;99.90
43043;DHT22;28667;50.758;6.096;2023-06-04T01:35:52;9.80;99.90
43043;DHT22;28667;50.758;6.096;2023-06-04T01:38:18;9.70;99.90
43043;DHT22;28667;50.758;6.096;2023-06-04T01:40:45;9.70;99.90
43043;DHT22;28667;50.758;6.096;2023-06-04T01:43:11;9.70;99.90
43043;DHT22;28667;50.758;6.096;2023-06-04T01:45:37;9.60;99.90
43043;DHT22;28667;50.758;6.096;2023-06-04T01:48:03;9.60;99.90
43043;DHT22;28667;50.758;6.096;2023-06-04T01:50:29;9.60;99.90
43043;DHT22;28667;50.758;6.096;2023-06-04T01:52:56;9.50;99.90
43043;DHT22;28667;50.758;6.096;2023-06-04T01:55:22;9.50;99.90
43043;DHT22;28667;50.758;6.096;2023-06-04T01:57:50;9.50;99.90
43043;DHT22;28667;50.758;6.096;2023-06-04T02:00:16;9.40;99.90
43043;DHT22;28667;50.758;6.096;2023-06-04T02:02:46;9.40;99.90
43043;DHT22;28667;50.758;6.096;2023-06-04T02:05:15;9.30;99.90
43043;DHT22;28667;50.758;6.096;2023-06-04T02:07:43;9.30;99.90
43043;DHT22;28667;50.758;6.096;2023-06-04T02:10:15;9.30;99.90
43043;DHT22;28667;50.758;6.096;2023-06-04T02:12:56;9.20;99.90
43043;DHT22;28667;50.758;6.096;2023-06-04T02:15:23;9.20;99.90
43043;DHT22;28667;50.758;6.096;2023-06-04T02:17:50;9.20;99.90
43043;DHT22;28667;50.758;6.096;2023-06-04T02:20:16;9.10;99.90
43043;DHT22;28667;50.758;6.096;2023-06-04T02:22:42;9.10;99.90
43043;DHT22;28667;50.758;6.096;2023-06-04T02:25:08;9.10;99.90
43043;DHT22;28667;50.758;6.096;2023-06-04T02:27:35;9.10;99.90
43043;DHT22;28667;50.758;6.096;2023-06-04T02:30:02;9.00;99.90
43043;DHT22;28667;50.758;6.096;2023-06-04T02:32:28;9.00;99.90
43043;DHT22;28667;50.758;6.096;2023-06-04T02:34:54;9.00;99.90
43043;DHT22;28667;50.758;6.096;2023-06-04T02:37:21;8.90;99.90
43043;DHT22;28667;50.758;6.096;2023-06-04T02:39:47;8.90;99.90
43043;DHT22;28667;50.758;6.096;2023-06-04T02:42:13;8.90;99.90
43043;DHT22;28667;50.758;6.096;2023-06-04T02:44:39;8.80;99.90
43043;DHT22;28667;50.758;6.096;2023-06-04T02:47:05;8.80;99.90
43043;DHT22;28667;50.758;6.096;2023-06-04T02:49:31;8.80;99.90
43043;DHT22;28667;50.758;6.096;2023-06-04T02:51:57;8.80;99.90
43043;DHT22;28667;50.758;6.096;2023-06-04T02:54:22;8.70;99.90
43043;DHT22;28667;50.758;6.096;2023-06-04T02:56:48;8.70;99.90
43043;DHT22;28667;50.758;6.096;2023-06-04T02:59:15;8.70;99.90
43043;DHT22;28667;50.758;6.096;2023-06-04T03:01:41;8.60;99.90
43043;DHT22;28667;50.758;6.096;2023-06-04T03:04:06;8.60;99.90
43043;DHT22;28667;50.758;6.096;2023-06-04T03:06:35;8.60;99.90
43043;DHT22;28667;50.758;6.096;2023-06-04T03:09:03;8.60;99.90
43043;DHT22;28667;50.758;6.096;2023-06-04T03:11:29;8.50;99.90
43043;DHT22;28667;50.758;6.096;2023-06-04T03:13:55;8.50;99.90
43043;DHT22;28667;50.758;6.096;2023-06-04T03:16:21;8.40;99.90
43043;DHT22;28667;50.758;6.096;2023-06-04T03:18:47;8.40;99.90
43043;DHT22;28667;50.758;6.096;2023-06-04T03:21:13;8.40;99.90
43043;DHT22;28667;50.758;6.096;2023-06-04T03:23:39;8.40;99.90
43043;DHT22;28667;50.758;6.096;2023-06-04T03:26:06;8.40;99.90
43043;DHT22;28667;50.758;6.096;2023-06-04T03:28:32;8.30;99.90
43043;DHT22;28667;50.758;6.096;2023-06-04T03:31:00;8.30;99.90
43043;DHT22;28667;50.758;6.096;2023-06-04T03:33:27;8.30;99.90
43043;DHT22;28667;50.758;6.096;2023-06-04T03:35:52;8.30;99.90
43043;DHT22;28667;50.758;6.096;2023-06-04T03:38:21;8.30;99.90
43043;DHT22;28667;50.758;6.096;2023-06-04T03:40:48;8.30;99.90
43043;DHT22;28667;50.758;6.096;2023-06-04T03:43:14;8.30;99.90
43043;DHT22;28667;50.758;6.096;2023-06-04T03:45:42;8.30;99.90
43043;DHT22;28667;50.758;6.096;2023-06-04T03:48:08;8.30;99.90
43043;DHT22;28667;50.758;6.096;2023-06-04T03:50:35;8.30;99.90
43043;DHT22;28667;50.758;6.096;2023-06-04T03:53:01;8.30;99.90
43043;DHT22;28667;50.758;6.096;2023-06-04T03:55:31;8.30;99.90
43043;DHT22;28667;50.758;6.096;2023-06-04T03:58:01;8.30;99.90
43043;DHT22;28667;50.758;6.096;2023-06-04T04:00:28;8.30;99.90
43043;DHT22;28667;50.758;6.096;2023-06-04T04:02:56;8.30;99.90
43043;DHT22;28667;50.758;6.096;2023-06-04T04:05:26;8.30;99.90
43043;DHT22;28667;50.758;6.096;2023-06-04T04:07:53;8.30;99.90
43043;DHT22;28667;50.758;6.096;2023-06-04T04:10:23;8.30;99.90
43043;DHT22;28667;50.758;6.096;2023-06-04T04:12:49;8.30;99.90
43043;DHT22;28667;50.758;6.096;2023-06-04T04:15:18;8.40;99.90
43043;DHT22;28667;50.758;6.096;2023-06-04T04:17:44;8.40;99.90
43043;DHT22;28667;50.758;6.096;2023-06-04T04:20:10;8.40;99.90
43043;DHT22;28667;50.758;6.096;2023-06-04T04:22:41;8.40;99.90
43043;DHT22;28667;50.758;6.096;2023-06-04T04:25:08;8.40;99.90
43043;DHT22;28667;50.758;6.096;2023-06-04T04:27:35;8.50;99.90
43043;DHT22;28667;50.758;6.096;2023-06-04T04:30:07;8.50;99.90
43043;DHT22;28667;50.758;6.096;2023-06-04T04:32:33;8.60;99.90
43043;DHT22;28667;50.758;6.096;2023-06-04T04:34:59;8.60;99.90
43043;DHT22;28667;50.758;6.096;2023-06-04T04:37:32;8.60;99.90
43043;DHT22;28667;50.758;6.096;2023-06-04T04:39:58;8.70;99.90
43043;DHT22;28667;50.758;6.096;2023-06-04T04:42:27;8.70;99.90
43043;DHT22;28667;50.758;6.096;2023-06-04T04:44:54;8.70;99.90
43043;DHT22;28667;50.758;6.096;2023-06-04T04:47:22;8.80;99.90
43043;DHT22;28667;50.758;6.096;2023-06-04T04:49:48;8.80;99.90
43043;DHT22;28667;50.758;6.096;2023-06-04T04:52:15;8.90;99.90
43043;DHT22;28667;50.758;6.096;2023-06-04T04:54:42;8.90;99.90
43043;DHT22;28667;50.758;6.096;2023-06-04T04:57:08;8.90;99.90
43043;DHT22;28667;50.758;6.096;2023-06-04T04:59:35;9.00;99.90
43043;DHT22;28667;50.758;6.096;2023-06-04T05:02:01;9.10;99.90
43043;DHT22;28667;50.758;6.096;2023-06-04T05:04:28;9.10;99.90
43043;DHT22;28667;50.758;6.096;2023-06-04T05:06:54;9.20;99.90
43043;DHT22;28667;50.758;6.096;2023-06-04T05:09:20;9.20;99.90
43043;DHT22;28667;50.758;6.096;2023-06-04T05:11:46;9.30;99.90
43043;DHT22;28667;50.758;6.096;2023-06-04T05:14:13;9.30;99.90
43043;DHT22;28667;50.758;6.096;2023-06-04T05:16:40;9.40;99.90
43043;DHT22;28667;50.758;6.096;2023-06-04T05:19:07;9.50;99.90
43043;DHT22;28667;50.758;6.096;2023-06-04T05:21:36;9.60;99.90
43043;DHT22;28667;50.758;6.096;2023-06-04T05:24:05;9.70;99.90
43043;DHT22;28667;50.758;6.096;2023-06-04T05:26:35;9.80;99.90
43043;DHT22;28667;50.758;6.096;2023-06-04T05:29:07;9.90;99.90
43043;DHT22;28667;50.758;6.096;2023-06-04T05:31:37;10.00;99.90
43043;DHT22;28667;50.758;6.096;2023-06-04T05:34:07;10.20;99.90
43043;DHT22;28667;50.758;6.096;2023-06-04T05:36:36;10.30;99.90
43043;DHT22;28667;50.758;6.096;2023-06-04T05:39:04;10.30;99.90
43043;DHT22;28667;50.758;6.096;2023-06-04T05:41:50;10.40;99.90
43043;DHT22;28667;50.758;6.096;2023-06-04T05:44:16;10.50;99.90
43043;DHT22;28667;50.758;6.096;2023-06-04T05:46:42;10.60;99.90
43043;DHT22;28667;50.758;6.096;2023-06-04T05:49:09;10.70;99.90
43043;DHT22;28667;50.758;6.096;2023-06-04T05:51:35;10.70;99.90
43043;DHT22;28667;50.758;6.096;2023-06-04T05:54:01;10.70;99.90
43043;DHT22;28667;50.758;6.096;2023-06-04T05:56:28;10.80;99.90
43043;DHT22;28667;50.758;6.096;2023-06-04T05:58:56;10.90;99.90
43043;DHT22;28667;50.758;6.096;2023-06-04T06:01:24;10.90;99.90
43043;DHT22;28667;50.758;6.096;2023-06-04T06:03:51;10.90;99.90
43043;DHT22;28667;50.758;6.096;2023-06-04T06:06:18;11.00;99.90
43043;DHT22;28667;50.758;6.096;2023-06-04T06:08:45;11.10;99.90
43043;DHT22;28667;50.758;6.096;2023-06-04T06:11:11;11.20;99.90
43043;DHT22;28667;50.758;6.096;2023-06-04T06:13:37;11.30;99.90
43043;DHT22;28667;50.758;6.096;2023-06-04T06:16:03;11.40;99.90
43043;DHT22;28667;50.758;6.096;2023-06-04T06:18:30;11.50;99.90
43043;DHT22;28667;50.758;6.096;2023-06-04T06:20:56;11.60;99.90
43043;DHT22;28667;50.758;6.096;2023-06-04T06:23:22;11.70;99.90
43043;DHT22;28667;50.758;6.096;2023-06-04T06:25:50;11.70;99.90
43043;DHT22;28667;50.758;6.096;2023-06-04T06:28:21;11.80;99.90
43043;DHT22;28667;50.758;6.096;2023-06-04T06:30:48;11.90;99.90
43043;DHT22;28667;50.758;6.096;2023-06-04T06:33:14;12.00;99.90
43043;DHT22;28667;50.758;6.096;2023-06-04T06:35:40;12.10;99.90
43043;DHT22;28667;50.758;6.096;2023-06-04T06:38:05;12.20;99.90
43043;DHT22;28667;50.758;6.096;2023-06-04T06:40:31;12.30;99.80
43043;DHT22;28667;50.758;6.096;2023-06-04T06:42:57;12.40;99.60
43043;DHT22;28667;50.758;6.096;2023-06-04T06:45:23;12.50;99.40
43043;DHT22;28667;50.758;6.096;2023-06-04T06:47:49;12.60;99.20
43043;DHT22;28667;50.758;6.096;2023-06-04T06:50:14;12.70;98.90
43043;DHT22;28667;50.758;6.096;2023-06-04T06:52:40;12.80;98.90
43043;DHT22;28667;50.758;6.096;2023-06-04T06:55:06;12.90;98.40
43043;DHT22;28667;50.758;6.096;2023-06-04T06:57:33;13.00;98.00
43043;DHT22;28667;50.758;6.096;2023-06-04T06:59:59;13.10;98.00
43043;DHT22;28667;50.758;6.096;2023-06-04T07:02:25;13.20;97.60
43043;DHT22;28667;50.758;6.096;2023-06-04T07:04:50;13.30;98.00
43043;DHT22;28667;50.758;6.096;2023-06-04T07:07:16;13.40;97.90
43043;DHT22;28667;50.758;6.096;2023-06-04T07:09:42;13.40;97.80
43043;DHT22;28667;50.758;6.096;2023-06-04T07:12:08;13.50;97.70
43043;DHT22;28667;50.758;6.096;2023-06-04T07:14:34;13.60;97.30
43043;DHT22;28667;50.758;6.096;2023-06-04T07:17:00;13.70;97.20
43043;DHT22;28667;50.758;6.096;2023-06-04T07:19:26;13.80;97.30
43043;DHT22;28667;50.758;6.096;2023-06-04T07:21:54;13.90;97.40
43043;DHT22;28667;50.758;6.096;2023-06-04T07:24:20;13.90;97.50
43043;DHT22;28667;50.758;6.096;2023-06-04T07:26:45;14.00;97.40
43043;DHT22;28667;50.758;6.096;2023-06-04T07:29:11;14.10;97.40
43043;DHT22;28667;50.758;6.096;2023-06-04T07:31:37;14.20;97.40
43043;DHT22;28667;50.758;6.096;2023-06-04T07:34:03;14.30;97.30
43043;DHT22;28667;50.758;6.096;2023-06-04T07:36:29;14.40;95.90
43043;DHT22;28667;50.758;6.096;2023-06-04T07:38:55;14.50;95.30
43043;DHT22;28667;50.758;6.096;2023-06-04T07:41:21;14.70;94.90
43043;DHT22;28667;50.758;6.096;2023-06-04T07:43:47;14.90;94.20
43043;DHT22;28667;50.758;6.096;2023-06-04T07:46:13;15.00;94.40
43043;DHT22;28667;50.758;6.096;2023-06-04T07:48:38;15.10;95.10
43043;DHT22;28667;50.758;6.096;2023-06-04T07:51:04;15.10;95.20
43043;DHT22;28667;50.758;6.096;2023-06-04T07:53:30;15.20;95.50
43043;DHT22;28667;50.758;6.096;2023-06-04T07:55:56;15.30;94.90
43043;DHT22;28667;50.758;6.096;2023-06-04T07:58:22;15.40;94.20
43043;DHT22;28667;50.758;6.096;2023-06-04T08:00:48;15.60;93.70
43043;DHT22;28667;50.758;6.096;2023-06-04T08:03:14;15.80;92.80
43043;DHT22;28667;50.758;6.096;2023-06-04T08:05:44;15.90;92.30
43043;DHT22;28667;50.758;6.096;2023-06-04T08:08:10;16.00;92.70
43043;DHT22;28667;50.758;6.096;2023-06-04T08:10:35;16.00;92.90
43043;DHT22;28667;50.758;6.096;2023-06-04T08:13:01;16.10;92.20
43043;DHT22;28667;50.758;6.096;2023-06-04T08:15:27;16.30;91.10
43043;DHT22;28667;50.758;6.096;2023-06-04T08:17:53;16.40;90.80
43043;DHT22;28667;50.758;6.096;2023-06-04T08:20:18;16.50;90.20
43043;DHT22;28667;50.758;6.096;2023-06-04T08:22:44;16.60;89.80
43043;DHT22;28667;50.758;6.096;2023-06-04T08:25:10;16.80;87.10
43043;DHT22;28667;50.758;6.096;2023-06-04T08:27:36;16.90;87.60
43043;DHT22;28667;50.758;6.096;2023-06-04T08:30:03;17.00;87.20
43043;DHT22;28667;50.758;6.096;2023-06-04T08:32:29;17.10;87.60
43043;DHT22;28667;50.758;6.096;2023-06-04T08:34:55;17.10;86.80
43043;DHT22;28667;50.758;6.096;2023-06-04T08:37:21;17.20;87.20
43043;DHT22;28667;50.758;6.096;2023-06-04T08:39:46;17.30;86.70
43043;DHT22;28667;50.758;6.096;2023-06-04T08:42:28;17.40;85.50
43043;DHT22;28667;50.758;6.096;2023-06-04T08:44:56;17.60;85.00
43043;DHT22;28667;50.758;6.096;2023-06-04T08:47:24;17.70;85.50
43043;DHT22;28667;50.758;6.096;2023-06-04T08:49:51;17.70;85.10
43043;DHT22;28667;50.758;6.096;2023-06-04T08:52:18;17.90;84.50
43043;DHT22;28667;50.758;6.096;2023-06-04T08:54:50;18.00;83.50
43043;DHT22;28667;50.758;6.096;2023-06-04T08:57:20;18.00;83.70
43043;DHT22;28667;50.758;6.096;2023-06-04T08:59:46;18.20;82.30
43043;DHT22;28667;50.758;6.096;2023-06-04T09:02:16;18.30;81.30
43043;DHT22;28667;50.758;6.096;2023-06-04T09:04:43;18.40;80.40
43043;DHT22;28667;50.758;6.096;2023-06-04T09:07:11;18.40;79.90
43043;DHT22;28667;50.758;6.096;2023-06-04T09:09:39;18.40;80.90
43043;DHT22;28667;50.758;6.096;2023-06-04T09:12:10;18.50;80.60
43043;DHT22;28667;50.758;6.096;2023-06-04T09:14:36;18.60;80.00
43043;DHT22;28667;50.758;6.096;2023-06-04T09:17:02;18.70;81.10
43043;DHT22;28667;50.758;6.096;2023-06-04T09:19:28;18.80;80.30
43043;DHT22;28667;50.758;6.096;2023-06-04T09:21:58;18.80;79.50
43043;DHT22;28667;50.758;6.096;2023-06-04T09:24:25;18.90;80.60
43043;DHT22;28667;50.758;6.096;2023-06-04T09:26:51;18.90;77.60
43043;DHT22;28667;50.758;6.096;2023-06-04T09:29:17;19.00;77.70
43043;DHT22;28667;50.758;6.096;2023-06-04T09:31:56;19.10;77.80
43043;DHT22;28667;50.758;6.096;2023-06-04T09:34:29;19.20;76.80
43043;DHT22;28667;50.758;6.096;2023-06-04T09:36:56;19.30;76.70
43043;DHT22;28667;50.758;6.096;2023-06-04T09:39:22;19.30;76.40
43043;DHT22;28667;50.758;6.096;2023-06-04T09:41:59;19.40;74.90
43043;DHT22;28667;50.758;6.096;2023-06-04T09:44:26;19.50;73.10
43043;DHT22;28667;50.758;6.096;2023-06-04T09:46:58;19.60;74.20
43043;DHT22;28667;50.758;6.096;2023-06-04T09:49:24;19.70;75.40
43043;DHT22;28667;50.758;6.096;2023-06-04T09:51:50;19.70;74.00
43043;DHT22;28667;50.758;6.096;2023-06-04T09:54:16;19.80;75.00
43043;DHT22;28667;50.758;6.096;2023-06-04T09:56:42;19.90;74.40
43043;DHT22;28667;50.758;6.096;2023-06-04T09:59:09;20.00;73.40
43043;DHT22;28667;50.758;6.096;2023-06-04T10:01:38;20.00;72.60
43043;DHT22;28667;50.758;6.096;2023-06-04T10:04:07;20.10;72.00
43043;DHT22;28667;50.758;6.096;2023-06-04T10:06:34;20.10;71.10
43043;DHT22;28667;50.758;6.096;2023-06-04T10:09:05;20.20;71.30
43043;DHT22;28667;50.758;6.096;2023-06-04T10:11:39;20.30;69.90
43043;DHT22;28667;50.758;6.096;2023-06-04T10:14:30;20.30;70.40
43043;DHT22;28667;50.758;6.096;2023-06-04T10:16:58;20.40;69.30
43043;DHT22;28667;50.758;6.096;2023-06-04T10:19:25;20.40;69.00
43043;DHT22;28667;50.758;6.096;2023-06-04T10:21:52;20.40;69.30
43043;DHT22;28667;50.758;6.096;2023-06-04T10:24:18;20.40;68.40
43043;DHT22;28667;50.758;6.096;2023-06-04T10:26:47;20.40;69.10
43043;DHT22;28667;50.758;6.096;2023-06-04T10:29:14;20.40;69.50
43043;DHT22;28667;50.758;6.096;2023-06-04T10:31:40;20.40;70.60
43043;DHT22;28667;50.758;6.096;2023-06-04T10:34:07;20.40;69.60
43043;DHT22;28667;50.758;6.096;2023-06-04T10:36:42;20.30;69.20
43043;DHT22;28667;50.758;6.096;2023-06-04T10:39:09;20.20;70.10
43043;DHT22;28667;50.758;6.096;2023-06-04T10:41:35;20.10;68.40
43043;DHT22;28667;50.758;6.096;2023-06-04T10:44:01;20.10;68.30
43043;DHT22;28667;50.758;6.096;2023-06-04T10:46:37;20.10;70.20
43043;DHT22;28667;50.758;6.096;2023-06-04T10:49:04;20.20;71.90
43043;DHT22;28667;50.758;6.096;2023-06-04T10:51:34;20.30;71.50
43043;DHT22;28667;50.758;6.096;2023-06-04T10:54:02;20.30;70.20
43043;DHT22;28667;50.758;6.096;2023-06-04T10:56:33;20.30;70.80
43043;DHT22;28667;50.758;6.096;2023-06-04T10:59:12;20.40;70.90
43043;DHT22;28667;50.758;6.096;2023-06-04T11:01:38;20.40;68.40
43043;DHT22;28667;50.758;6.096;2023-06-04T11:04:04;20.40;69.60
43043;DHT22;28667;50.758;6.096;2023-06-04T11:06:29;20.40;68.60
43043;DHT22;28667;50.758;6.096;2023-06-04T11:09:03;20.40;68.40
43043;DHT22;28667;50.758;6.096;2023-06-04T11:11:30;20.40;68.40
43043;DHT22;28667;50.758;6.096;2023-06-04T11:14:10;20.40;67.50
43043;DHT22;28667;50.758;6.096;2023-06-04T11:16:38;20.50;68.80
43043;DHT22;28667;50.758;6.096;2023-06-04T11:19:04;20.50;68.30
43043;DHT22;28667;50.758;6.096;2023-06-04T11:21:30;20.60;67.30
43043;DHT22;28667;50.758;6.096;2023-06-04T11:23:58;20.60;67.90
43043;DHT22;28667;50.758;6.096;2023-06-04T11:26:34;20.60;67.80
43043;DHT22;28667;50.758;6.096;2023-06-04T11:29:00;20.80;68.50
43043;DHT22;28667;50.758;6.096;2023-06-04T11:31:26;20.80;68.20
43043;DHT22;28667;50.758;6.096;2023-06-04T11:33:52;20.80;67.00
43043;DHT22;28667;50.758;6.096;2023-06-04T11:36:29;20.90;67.60
43043;DHT22;28667;50.758;6.096;2023-06-04T11:39:02;20.90;67.30
43043;DHT22;28667;50.758;6.096;2023-06-04T11:41:30;21.00;65.30
43043;DHT22;28667;50.758;6.096;2023-06-04T11:43:57;21.10;67.50
43043;DHT22;28667;50.758;6.096;2023-06-04T11:46:23;21.10;67.70
43043;DHT22;28667;50.758;6.096;2023-06-04T11:48:52;21.10;67.00
43043;DHT22;28667;50.758;6.096;2023-06-04T11:51:22;21.10;68.10
43043;DHT22;28667;50.758;6.096;2023-06-04T11:53:48;21.10;66.50
43043;DHT22;28667;50.758;6.096;2023-06-04T11:56:15;21.10;66.30
43043;DHT22;28667;50.758;6.096;2023-06-04T11:58:41;21.10;65.40
43043;DHT22;28667;50.758;6.096;2023-06-04T12:01:08;21.20;65.50
43043;DHT22;28667;50.758;6.096;2023-06-04T12:03:39;21.10;65.70
43043;DHT22;28667;50.758;6.096;2023-06-04T12:06:20;21.20;66.20
43043;DHT22;28667;50.758;6.096;2023-06-04T12:08:54;21.30;64.60
43043;DHT22;28667;50.758;6.096;2023-06-04T12:11:31;21.40;65.60
43043;DHT22;28667;50.758;6.096;2023-06-04T12:14:05;21.50;67.80
43043;DHT22;28667;50.758;6.096;2023-06-04T12:16:31;21.50;67.60
43043;DHT22;28667;50.758;6.096;2023-06-04T12:19:05;21.60;66.50
43043;DHT22;28667;50.758;6.096;2023-06-04T12:21:32;21.60;67.70
43043;DHT22;28667;50.758;6.096;2023-06-04T12:26:34;21.70;66.30
43043;DHT22;28667;50.758;6.096;2023-06-04T12:29:14;21.70;66.50
43043;DHT22;28667;50.758;6.096;2023-06-04T12:31:41;21.70;66.80
43043;DHT22;28667;50.758;6.096;2023-06-04T12:34:07;21.80;66.90
43043;DHT22;28667;50.758;6.096;2023-06-04T12:36:33;21.80;66.50
43043;DHT22;28667;50.758;6.096;2023-06-04T12:39:03;21.80;65.50
43043;DHT22;28667;50.758;6.096;2023-06-04T12:41:29;21.90;65.60
43043;DHT22;28667;50.758;6.096;2023-06-04T12:43:56;22.00;65.10
43043;DHT22;28667;50.758;6.096;2023-06-04T12:46:22;22.00;64.70
43043;DHT22;28667;50.758;6.096;2023-06-04T12:48:50;22.00;64.40
43043;DHT22;28667;50.758;6.096;2023-06-04T12:51:16;22.00;63.80
43043;DHT22;28667;50.758;6.096;2023-06-04T12:53:42;22.10;64.20
43043;DHT22;28667;50.758;6.096;2023-06-04T12:56:08;22.10;64.30
43043;DHT22;28667;50.758;6.096;2023-06-04T12:58:34;22.10;64.00
43043;DHT22;28667;50.758;6.096;2023-06-04T13:01:00;22.20;64.10
43043;DHT22;28667;50.758;6.096;2023-06-04T13:03:26;22.20;64.00
43043;DHT22;28667;50.758;6.096;2023-06-04T13:05:52;22.30;63.00
43043;DHT22;28667;50.758;6.096;2023-06-04T13:08:21;22.20;62.50
43043;DHT22;28667;50.758;6.096;2023-06-04T13:10:49;22.20;63.00
43043;DHT22;28667;50.758;6.096;2023-06-04T13:13:16;22.20;63.20
43043;DHT22;28667;50.758;6.096;2023-06-04T13:15:42;22.30;62.20
43043;DHT22;28667;50.758;6.096;2023-06-04T13:18:08;22.40;63.30
43043;DHT22;28667;50.758;6.096;2023-06-04T13:20:35;22.40;62.30
43043;DHT22;28667;50.758;6.096;2023-06-04T13:23:01;22.50;62.40
43043;DHT22;28667;50.758;6.096;2023-06-04T13:25:27;22.50;62.70
43043;DHT22;28667;50.758;6.096;2023-06-04T13:27:54;22.50;62.60
43043;DHT22;28667;50.758;6.096;2023-06-04T13:30:21;22.60;63.10
43043;DHT22;28667;50.758;6.096;2023-06-04T13:32:47;22.60;62.00
43043;DHT22;28667;50.758;6.096;2023-06-04T13:35:13;22.60;62.80
43043;DHT22;28667;50.758;6.096;2023-06-04T13:37:39;22.60;62.60
43043;DHT22;28667;50.758;6.096;2023-06-04T13:40:06;22.70;63.20
43043;DHT22;28667;50.758;6.096;2023-06-04T13:42:32;22.80;62.80
43043;DHT22;28667;50.758;6.096;2023-06-04T13:44:57;22.80;63.00
43043;DHT22;28667;50.758;6.096;2023-06-04T13:47:24;22.90;62.00
43043;DHT22;28667;50.758;6.096;2023-06-04T13:49:50;22.80;62.70
43043;DHT22;28667;50.758;6.096;2023-06-04T13:52:16;22.90;63.00
43043;DHT22;28667;50.758;6.096;2023-06-04T13:54:43;23.00;62.80
43043;DHT22;28667;50.758;6.096;2023-06-04T13:57:09;23.00;62.60
43043;DHT22;28667;50.758;6.096;2023-06-04T13:59:38;23.00;61.80
43043;DHT22;28667;50.758;6.096;2023-06-04T14:02:04;23.00;61.40
43043;DHT22;28667;50.758;6.096;2023-06-04T14:04:30;22.90;62.10
43043;DHT22;28667;50.758;6.096;2023-06-04T14:06:56;23.00;61.10
43043;DHT22;28667;50.758;6.096;2023-06-04T14:09:22;22.90;61.40
43043;DHT22;28667;50.758;6.096;2023-06-04T14:11:48;22.90;61.80
43043;DHT22;28667;50.758;6.096;2023-06-04T14:14:19;22.80;61.70
43043;DHT22;28667;50.758;6.096;2023-06-04T14:16:45;22.90;62.10
43043;DHT22;28667;50.758;6.096;2023-06-04T14:19:12;23.00;61.60
43043;DHT22;28667;50.758;6.096;2023-06-04T14:21:37;23.10;60.90
43043;DHT22;28667;50.758;6.096;2023-06-04T14:24:04;23.10;61.40
43043;DHT22;28667;50.758;6.096;2023-06-04T14:26:29;23.10;61.50
43043;DHT22;28667;50.758;6.096;2023-06-04T14:28:56;23.10;61.60
43043;DHT22;28667;50.758;6.096;2023-06-04T14:31:22;23.20;61.00
43043;DHT22;28667;50.758;6.096;2023-06-04T14:33:48;23.20;61.50
43043;DHT22;28667;50.758;6.096;2023-06-04T14:36:13;23.20;60.50
43043;DHT22;28667;50.758;6.096;2023-06-04T14:38:39;23.30;60.90
43043;DHT22;28667;50.758;6.096;2023-06-04T14:41:05;23.30;60.30
43043;DHT22;28667;50.758;6.096;2023-06-04T14:43:31;23.30;60.50
43043;DHT22;28667;50.758;6.096;2023-06-04T14:45:56;23.40;60.20
43043;DHT22;28667;50.758;6.096;2023-06-04T14:48:23;23.40;61.10
43043;DHT22;28667;50.758;6.096;2023-06-04T14:50:48;23.40;61.00
43043;DHT22;28667;50.758;6.096;2023-06-04T14:53:15;23.40;60.50
43043;DHT22;28667;50.758;6.096;2023-06-04T14:55:41;23.30;60.30
43043;DHT22;28667;50.758;6.096;2023-06-04T14:58:06;23.30;60.80
43043;DHT22;28667;50.758;6.096;2023-06-04T15:00:32;23.30;60.90
43043;DHT22;28667;50.758;6.096;2023-06-04T15:02:58;23.40;60.10
43043;DHT22;28667;50.758;6.096;2023-06-04T15:05:25;23.40;60.00
43043;DHT22;28667;50.758;6.096;2023-06-04T15:07:51;23.40;59.90
43043;DHT22;28667;50.758;6.096;2023-06-04T15:10:17;23.50;60.20
43043;DHT22;28667;50.758;6.096;2023-06-04T15:12:42;23.50;59.40
43043;DHT22;28667;50.758;6.096;2023-06-04T15:15:09;23.60;60.10
43043;DHT22;28667;50.758;6.096;2023-06-04T15:17:35;23.60;59.50
43043;DHT22;28667;50.758;6.096;2023-06-04T15:20:05;23.70;59.50
43043;DHT22;28667;50.758;6.096;2023-06-04T15:22:31;23.70;58.60
43043;DHT22;28667;50.758;6.096;2023-06-04T15:24:57;23.70;58.70
43043;DHT22;28667;50.758;6.096;2023-06-04T15:27:23;23.70;59.40
43043;DHT22;28667;50.758;6.096;2023-06-04T15:29:48;23.70;58.50
43043;DHT22;28667;50.758;6.096;2023-06-04T15:32:14;23.80;58.90
43043;DHT22;28667;50.758;6.096;2023-06-04T15:34:41;23.90;59.50
43043;DHT22;28667;50.758;6.096;2023-06-04T15:37:07;23.90;58.40
43043;DHT22;28667;50.758;6.096;2023-06-04T15:39:32;23.90;58.40
43043;DHT22;28667;50.758;6.096;2023-06-04T15:41:58;23.80;58.40
43043;DHT22;28667;50.758;6.096;2023-06-04T15:44:24;23.80;58.40